Terminal Aerodrome Forecast
Issued by NWS

Home | Current Version | Previous Version | Text Only | Print | Product List | Glossary On
Versions: 1 2 3 4 5 6 7 8 9 10 11 12
000
FTUS46 KHNX 180537
TAFBFL
TAF
KBFL 180537Z 1806/1906 36007KT P6SM SCT200
     FM180900 03006KT P6SM SCT200
     FM181200 VRB04KT P6SM SCT200
     FM181900 30009KT P6SM SCT200
      TEMPO 1822/1902 32012G19KT
     FM190200 34007KT P6SM SCT200=

USA.gov is the U.S. government's official web portal to all federal, state and local government web resources and services.